Time;durP1;ratioP1;P1;durP2;ratioP2;P2;SDS_P1;SDS_P2;PMS_P1;PMS_P2;Temp;Humidity;BMP_temperature;BMP_pressure;BME280_temperature;BME280_humidity;BME280_pressure;Samples;Min_cycle;Max_cycle;Signal;HPM_P1;HPM_P2
2022/04/29 00:02:09;;;;;;;6.03;4.78;;;9.70;59.30;;;;;;4976305;28;20382;-75
2022/04/29 00:04:36;;;;;;;7.82;5.22;;;9.70;59.40;;;;;;4975856;28;20022;-75
2022/04/29 00:07:02;;;;;;;10.13;6.57;;;9.60;59.40;;;;;;4974701;28;20035;-76
2022/04/29 00:09:29;;;;;;;8.38;6.00;;;9.40;59.50;;;;;;4975704;28;20019;-76
2022/04/29 00:11:54;;;;;;;7.68;5.82;;;9.30;60.00;;;;;;4974516;28;20114;-76
2022/04/29 00:14:21;;;;;;;11.48;6.22;;;9.30;61.00;;;;;;4975540;28;20180;-76
2022/04/29 00:16:47;;;;;;;6.65;5.20;;;9.20;61.20;;;;;;4975554;28;20043;-74
2022/04/29 00:19:12;;;;;;;10.15;6.40;;;9.30;61.20;;;;;;4975014;28;20065;-74
2022/04/29 00:21:41;;;;;;;8.85;5.82;;;9.20;61.20;;;;;;4974159;28;20078;-74
2022/04/29 00:24:07;;;;;;;9.90;5.95;;;9.20;61.00;;;;;;4975400;28;20393;-74
2022/04/29 00:26:32;;;;;;;8.68;5.93;;;9.20;60.90;;;;;;4975972;28;20381;-74
2022/04/29 00:28:58;;;;;;;7.13;5.30;;;9.20;61.20;;;;;;4975284;28;20027;-74
2022/04/29 00:31:24;;;;;;;8.55;6.07;;;9.20;60.80;;;;;;4975267;28;20019;-75
2022/04/29 00:33:49;;;;;;;7.85;5.53;;;9.20;60.60;;;;;;4975098;28;20058;-76
2022/04/29 00:36:15;;;;;;;8.32;5.70;;;9.20;60.60;;;;;;4975120;28;20374;-75
2022/04/29 00:38:40;;;;;;;9.30;5.90;;;9.20;60.70;;;;;;4975030;28;20047;-76
2022/04/29 00:41:06;;;;;;;7.55;5.35;;;9.20;60.80;;;;;;4975181;28;20038;-76
2022/04/29 00:43:32;;;;;;;10.07;5.88;;;9.20;61.70;;;;;;4975119;28;20042;-76
2022/04/29 00:45:57;;;;;;;7.53;5.72;;;9.20;60.80;;;;;;4973532;28;20058;-76
2022/04/29 00:48:23;;;;;;;8.48;5.93;;;9.20;60.20;;;;;;4974899;28;20062;-76
2022/04/29 00:50:49;;;;;;;11.15;6.18;;;9.20;60.00;;;;;;4974976;28;20062;-76
2022/04/29 00:53:17;;;;;;;7.63;5.40;;;9.20;59.80;;;;;;4974755;28;20033;-76
2022/04/29 00:55:44;;;;;;;8.73;6.60;;;9.20;59.60;;;;;;4973626;28;20220;-76
2022/04/29 00:58:17;;;;;;;14.38;6.65;;;9.20;59.80;;;;;;4973647;28;20023;-75
2022/04/29 01:00:43;;;;;;;9.77;6.32;;;9.00;60.20;;;;;;4974727;28;20034;-75
2022/04/29 01:03:14;;;;;;;8.60;5.93;;;8.90;61.00;;;;;;4974695;28;20041;-75
2022/04/29 01:05:40;;;;;;;8.43;5.95;;;8.90;61.30;;;;;;4974705;28;20023;-75
2022/04/29 01:08:07;;;;;;;9.13;5.88;;;8.90;61.30;;;;;;4974631;28;20480;-75
2022/04/29 01:10:32;;;;;;;10.05;5.65;;;8.90;62.30;;;;;;4989481;28;20027;-75
2022/04/29 01:13:03;;;;;;;9.85;5.70;;;8.90;61.60;;;;;;4974474;28;20507;-75
2022/04/29 01:15:30;;;;;;;12.27;6.57;;;8.90;61.30;;;;;;4974542;28;20035;-76
2022/04/29 01:18:02;;;;;;;9.43;6.63;;;8.70;61.20;;;;;;4974383;28;20046;-75
2022/04/29 01:20:31;;;;;;;12.20;6.63;;;8.60;61.60;;;;;;4974695;28;20113;-76
2022/04/29 01:22:57;;;;;;;9.25;6.07;;;8.60;61.90;;;;;;4974413;28;20106;-76
2022/04/29 01:25:23;;;;;;;11.30;6.30;;;8.70;62.00;;;;;;4974301;28;20098;-76
2022/04/29 01:27:50;;;;;;;8.30;6.22;;;8.60;61.80;;;;;;4974486;28;20109;-76
2022/04/29 01:30:16;;;;;;;12.52;6.32;;;8.60;61.90;;;;;;4974349;28;20027;-76
2022/04/29 01:32:42;;;;;;;7.57;6.03;;;8.70;62.10;;;;;;4974369;28;20073;-76
2022/04/29 01:35:10;;;;;;;6.82;5.28;;;8.70;61.80;;;;;;4974253;28;20050;-76
2022/04/29 01:37:36;;;;;;;7.90;5.68;;;8.70;61.80;;;;;;4974086;28;20489;-76
2022/04/29 01:40:03;;;;;;;8.57;5.70;;;8.80;61.60;;;;;;4974041;28;20478;-76
2022/04/29 01:42:29;;;;;;;7.38;6.00;;;8.80;61.30;;;;;;4974144;28;20029;-76
2022/04/29 01:44:55;;;;;;;10.63;6.35;;;8.70;61.40;;;;;;4974113;28;20389;-76
2022/04/29 01:47:20;;;;;;;9.07;6.10;;;8.70;61.50;;;;;;4974132;28;20037;-75
2022/04/29 01:49:46;;;;;;;7.35;5.55;;;8.70;61.90;;;;;;4974140;28;20484;-75
2022/04/29 01:52:12;;;;;;;5.95;4.75;;;8.70;62.00;;;;;;4974080;28;20433;-75
2022/04/29 01:54:38;;;;;;;9.02;4.85;;;8.60;61.80;;;;;;4973992;28;20034;-75
2022/04/29 01:57:05;;;;;;;9.00;4.95;;;8.70;61.90;;;;;;4973912;28;20029;-75
2022/04/29 01:59:31;;;;;;;7.50;5.13;;;8.60;61.70;;;;;;4974028;28;20047;-75
2022/04/29 02:01:58;;;;;;;6.90;5.55;;;8.60;61.50;;;;;;4974169;28;20030;-76
2022/04/29 02:04:24;;;;;;;7.90;5.63;;;8.60;61.50;;;;;;4973966;28;20027;-76
2022/04/29 02:06:50;;;;;;;8.00;4.80;;;8.60;61.80;;;;;;4974074;28;20066;-76
2022/04/29 02:09:15;;;;;;;5.22;4.03;;;8.60;62.00;;;;;;4974004;28;20050;-76
2022/04/29 02:12:03;;;;;;;6.57;4.05;;;8.60;62.10;;;;;;4973927;28;20035;-76
2022/04/29 02:14:27;;;;;;;5.57;3.47;;;8.60;62.00;;;;;;4973898;28;20129;-75
2022/04/29 02:16:53;;;;;;;4.75;3.90;;;8.60;61.80;;;;;;4974176;28;20066;-74
2022/04/29 02:19:18;;;;;;;5.22;3.80;;;8.50;62.10;;;;;;4974814;28;20361;-74
2022/04/29 02:21:44;;;;;;;6.03;3.80;;;8.50;62.50;;;;;;4973926;28;20106;-74
2022/04/29 02:24:09;;;;;;;6.72;3.95;;;8.40;62.40;;;;;;4988784;28;20381;-74
2022/04/29 02:26:35;;;;;;;7.18;4.30;;;8.50;62.80;;;;;;4974386;28;20089;-76
2022/04/29 02:29:01;;;;;;;7.53;5.07;;;8.40;62.50;;;;;;4974300;28;20038;-76
2022/04/29 02:31:27;;;;;;;4.68;3.85;;;8.40;62.80;;;;;;4977368;28;20019;-76
2022/04/29 02:33:52;;;;;;;6.18;4.20;;;8.30;62.80;;;;;;4977515;28;20058;-76
2022/04/29 02:36:18;;;;;;;7.55;4.60;;;8.30;62.90;;;;;;4977560;28;20058;-76
2022/04/29 02:38:44;;;;;;;5.45;4.10;;;8.30;62.90;;;;;;4975886;28;20382;-75
2022/04/29 02:41:09;;;;;;;4.88;3.60;;;8.30;63.00;;;;;;4977413;28;20027;-75
2022/04/29 02:43:35;;;;;;;9.10;4.50;;;8.20;63.10;;;;;;4977448;28;20038;-75
2022/04/29 02:46:01;;;;;;;7.28;3.92;;;8.20;63.40;;;;;;4977318;28;20029;-75
2022/04/29 02:48:27;;;;;;;7.38;5.25;;;8.10;63.60;;;;;;4977448;28;20019;-75
2022/04/29 02:50:52;;;;;;;7.72;5.30;;;8.10;64.00;;;;;;4977278;28;20058;-75
2022/04/29 02:53:18;;;;;;;8.68;5.03;;;8.10;64.10;;;;;;4977139;28;20109;-76
2022/04/29 02:55:43;;;;;;;9.77;5.68;;;8.00;64.30;;;;;;4977447;28;20023;-75
2022/04/29 02:58:09;;;;;;;8.55;5.97;;;7.90;64.60;;;;;;4977408;28;20031;-74
2022/04/29 03:00:34;;;;;;;12.00;6.75;;;7.80;64.90;;;;;;4977509;28;20035;-74
2022/04/29 03:03:00;;;;;;;14.18;7.13;;;7.80;65.30;;;;;;4978099;28;20103;-75
2022/04/29 03:05:26;;;;;;;7.95;5.85;;;7.70;65.60;;;;;;4997540;28;20066;-75
2022/04/29 03:07:51;;;;;;;10.85;7.30;;;7.60;65.90;;;;;;4998846;28;20022;-74
2022/04/29 03:10:17;;;;;;;9.63;6.30;;;7.50;66.40;;;;;;4996343;28;20034;-73
2022/04/29 03:12:43;;;;;;;9.68;7.15;;;7.50;66.80;;;;;;4990729;28;20037;-74
2022/04/29 03:15:18;;;;;;;9.68;6.60;;;7.40;67.10;;;;;;4977161;28;20102;-75
2022/04/29 03:20:30;;;;;;;13.77;6.50;;;7.40;67.30;;;;;;4976766;28;20411;-75
2022/04/29 03:22:55;;;;;;;9.82;6.53;;;7.40;67.30;;;;;;4975413;28;20125;-74
2022/04/29 03:25:21;;;;;;;11.93;7.93;;;7.50;67.10;;;;;;4976604;28;20122;-74
2022/04/29 03:27:46;;;;;;;9.27;6.35;;;7.50;66.90;;;;;;4976603;28;20434;-75
2022/04/29 03:30:13;;;;;;;7.13;5.18;;;7.50;66.90;;;;;;4976649;28;20034;-75
2022/04/29 03:32:38;;;;;;;10.48;6.95;;;7.60;66.70;;;;;;4976495;28;20081;-74
2022/04/29 03:35:04;;;;;;;10.25;6.97;;;7.60;66.60;;;;;;4976254;28;20042;-74
2022/04/29 03:37:31;;;;;;;12.38;8.68;;;7.60;66.50;;;;;;4976205;28;20046;-75
2022/04/29 03:39:56;;;;;;;12.98;8.77;;;7.60;66.60;;;;;;4991242;28;20031;-74
2022/04/29 03:42:22;;;;;;;11.52;9.00;;;7.50;66.60;;;;;;4976241;28;20053;-75
2022/04/29 03:44:47;;;;;;;11.60;8.00;;;7.40;66.70;;;;;;4975930;28;20098;-75
2022/04/29 03:47:13;;;;;;;12.30;7.63;;;7.40;66.80;;;;;;4976072;28;20027;-73
2022/04/29 03:49:39;;;;;;;12.13;7.18;;;7.50;67.10;;;;;;4976076;28;20035;-76
2022/04/29 03:52:05;;;;;;;8.70;6.70;;;7.50;67.00;;;;;;4975947;28;20027;-76
2022/04/29 03:54:32;;;;;;;15.27;7.00;;;7.40;67.00;;;;;;4975835;28;20043;-76
2022/04/29 03:56:58;;;;;;;10.10;5.72;;;7.50;67.10;;;;;;4975891;28;20027;-74
2022/04/29 03:59:24;;;;;;;8.05;5.13;;;7.50;66.90;;;;;;4975919;28;20037;-76
2022/04/29 04:01:49;;;;;;;7.00;4.95;;;7.50;66.70;;;;;;4975816;28;20027;-76
2022/04/29 04:04:15;;;;;;;5.82;4.35;;;7.50;66.60;;;;;;4975786;28;20077;-76
2022/04/29 04:06:49;;;;;;;4.80;4.13;;;7.50;66.50;;;;;;4975811;28;20069;-76
2022/04/29 04:09:16;;;;;;;6.00;4.50;;;7.40;66.40;;;;;;4975717;28;20034;-76
2022/04/29 04:11:41;;;;;;;7.43;5.03;;;7.40;66.60;;;;;;4975654;28;20046;-76
2022/04/29 04:14:08;;;;;;;6.82;5.30;;;7.40;66.60;;;;;;4975311;28;20078;-75
2022/04/29 04:16:35;;;;;;;7.28;4.93;;;7.40;67.80;;;;;;4975295;28;20051;-76
2022/04/29 04:19:01;;;;;;;5.43;4.25;;;7.40;67.00;;;;;;4975518;28;20079;-76
2022/04/29 04:21:27;;;;;;;5.88;5.03;;;7.30;67.10;;;;;;4975461;28;20106;-76
2022/04/29 04:23:55;;;;;;;9.63;5.07;;;7.30;67.20;;;;;;4975445;28;20055;-75
2022/04/29 04:26:21;;;;;;;7.82;4.93;;;7.30;67.40;;;;;;4975442;28;20342;-76
2022/04/29 04:28:47;;;;;;;7.60;4.32;;;7.20;67.30;;;;;;4975352;28;20023;-75
2022/04/29 04:31:13;;;;;;;6.72;4.28;;;7.20;67.40;;;;;;4975234;28;20034;-75
2022/04/29 04:33:38;;;;;;;6.22;4.90;;;7.20;67.50;;;;;;4975272;28;20061;-74
2022/04/29 04:36:04;;;;;;;8.32;4.75;;;7.20;67.50;;;;;;4975862;28;20033;-75
2022/04/29 04:38:31;;;;;;;6.22;4.90;;;7.20;67.70;;;;;;4975606;28;20039;-75
2022/04/29 04:40:58;;;;;;;11.15;6.65;;;7.20;67.80;;;;;;4975582;28;20027;-77
2022/04/29 04:43:27;;;;;;;10.20;6.22;;;7.20;67.60;;;;;;4974964;28;20023;-75
2022/04/29 04:45:53;;;;;;;7.05;5.22;;;7.20;67.60;;;;;;4974929;28;20030;-75
2022/04/29 04:48:20;;;;;;;7.20;4.72;;;7.20;67.70;;;;;;4974945;28;20034;-76
2022/04/29 04:50:46;;;;;;;6.97;4.53;;;7.30;67.60;;;;;;4974897;28;20102;-74
2022/04/29 04:53:11;;;;;;;11.00;5.93;;;7.30;67.40;;;;;;4972933;28;20050;-75
2022/04/29 04:55:37;;;;;;;9.07;4.97;;;7.40;67.20;;;;;;4973529;28;20039;-75
2022/04/29 04:58:03;;;;;;;9.90;5.57;;;7.40;67.10;;;;;;4974749;28;20034;-75
2022/04/29 05:00:29;;;;;;;7.75;5.40;;;7.50;67.00;;;;;;4974726;28;20057;-76
2022/04/29 05:02:55;;;;;;;9.93;5.78;;;7.50;66.80;;;;;;4974552;28;20023;-75
2022/04/29 05:05:20;;;;;;;7.55;5.43;;;7.50;66.70;;;;;;4974407;28;20110;-76
2022/04/29 05:07:46;;;;;;;9.45;5.65;;;7.50;66.50;;;;;;4973069;28;20489;-75
2022/04/29 05:10:13;;;;;;;12.63;6.78;;;7.50;66.40;;;;;;4974447;28;20038;-77
2022/04/29 05:12:40;;;;;;;10.30;6.50;;;7.60;66.50;;;;;;4974568;28;20027;-77
2022/04/29 05:15:06;;;;;;;10.85;6.63;;;7.60;66.20;;;;;;4974428;28;20078;-77
2022/04/29 05:17:32;;;;;;;10.25;7.18;;;7.60;66.40;;;;;;4974437;28;20050;-77
2022/04/29 05:19:57;;;;;;;10.77;7.05;;;7.60;66.30;;;;;;4974296;28;20473;-77
2022/04/29 05:22:23;;;;;;;9.27;6.40;;;7.70;66.40;;;;;;4974330;28;20487;-76
2022/04/29 05:24:48;;;;;;;10.18;6.53;;;7.80;66.30;;;;;;4974325;28;20053;-76
2022/04/29 05:27:14;;;;;;;11.95;8.00;;;7.80;66.30;;;;;;4989020;28;20042;-76
2022/04/29 05:29:39;;;;;;;10.82;8.30;;;7.80;66.30;;;;;;4973861;28;20022;-76
2022/04/29 05:32:07;;;;;;;8.90;7.32;;;7.80;66.40;;;;;;4974086;28;20106;-75
2022/04/29 05:34:33;;;;;;;8.35;5.85;;;7.90;66.30;;;;;;4973824;28;20085;-75
2022/04/29 05:37:00;;;;;;;13.52;7.47;;;7.90;66.10;;;;;;4973874;28;20039;-76
2022/04/29 05:42:18;;;;;;;13.13;7.43;;;8.00;65.60;;;;;;4973985;28;20033;-76
2022/04/29 05:44:45;;;;;;;10.00;6.40;;;8.00;65.70;;;;;;4973899;28;20354;-76
2022/04/29 05:47:11;;;;;;;8.98;5.93;;;8.10;65.80;;;;;;4988766;28;20026;-76
2022/04/29 05:49:38;;;;;;;10.90;6.15;;;8.10;65.70;;;;;;4973907;28;20385;-76
2022/04/29 05:52:05;;;;;;;8.18;5.88;;;8.20;65.60;;;;;;4973666;28;20050;-76
2022/04/29 05:54:31;;;;;;;8.00;6.18;;;8.20;65.40;;;;;;4973547;28;20047;-76
2022/04/29 05:56:57;;;;;;;9.88;6.50;;;8.30;65.20;;;;;;4973655;28;20046;-77
2022/04/29 05:59:23;;;;;;;11.00;7.35;;;8.40;64.90;;;;;;4973779;28;20035;-76
2022/04/29 06:01:49;;;;;;;10.30;7.05;;;8.50;64.40;;;;;;4973941;28;20487;-76
2022/04/29 06:04:14;;;;;;;8.95;6.53;;;8.60;64.10;;;;;;4974537;28;20027;-76
2022/04/29 06:06:40;;;;;;;10.35;5.95;;;8.70;64.10;;;;;;4977733;28;20073;-75
2022/04/29 06:09:05;;;;;;;8.45;5.75;;;8.80;63.70;;;;;;4977628;28;20392;-76
2022/04/29 06:11:31;;;;;;;9.65;6.13;;;8.90;63.40;;;;;;4977908;28;20113;-76
2022/04/29 06:13:56;;;;;;;8.20;5.63;;;9.00;63.40;;;;;;4977631;28;20034;-75
2022/04/29 06:16:22;;;;;;;7.80;6.07;;;9.10;63.50;;;;;;4978437;28;20508;-75
2022/04/29 06:18:48;;;;;;;11.90;6.13;;;9.20;63.30;;;;;;4976251;28;20023;-75
2022/04/29 06:21:16;;;;;;;11.20;7.20;;;9.20;63.00;;;;;;4976088;28;20031;-74
2022/04/29 06:23:42;;;;;;;13.73;8.23;;;9.20;62.80;;;;;;4977446;28;20366;-78
2022/04/29 06:26:08;;;;;;;10.50;6.60;;;9.30;63.20;;;;;;4977554;28;20082;-78
2022/04/29 06:28:34;;;;;;;11.73;7.72;;;9.30;62.20;;;;;;4977324;28;20109;-78
2022/04/29 06:31:00;;;;;;;12.07;7.85;;;9.40;61.70;;;;;;4977205;28;20073;-78
2022/04/29 06:33:28;;;;;;;14.57;7.53;;;9.40;61.50;;;;;;4977098;28;20023;-79
2022/04/29 06:35:54;;;;;;;10.40;6.97;;;9.50;61.60;;;;;;4977332;28;20023;-79
2022/04/29 06:38:19;;;;;;;9.57;7.80;;;9.60;61.50;;;;;;4977278;28;20434;-79
2022/04/29 06:40:45;;;;;;;14.95;8.35;;;9.40;62.20;;;;;;4977188;28;20042;-79
2022/04/29 06:43:11;;;;;;;13.15;7.78;;;9.50;62.40;;;;;;4977160;28;20054;-78
2022/04/29 06:45:36;;;;;;;18.70;10.20;;;9.60;62.30;;;;;;4977618;28;20023;-78
2022/04/29 06:48:02;;;;;;;12.32;8.93;;;9.70;62.00;;;;;;4977393;28;20061;-79
2022/04/29 06:50:27;;;;;;;15.05;10.20;;;9.60;62.20;;;;;;4976805;28;20069;-79
2022/04/29 06:52:53;;;;;;;18.73;8.98;;;9.80;61.60;;;;;;4976691;28;20030;-79
2022/04/29 06:55:18;;;;;;;23.23;9.55;;;9.90;61.50;;;;;;4976736;28;20038;-79
2022/04/29 06:57:46;;;;;;;13.80;7.85;;;10.10;61.10;;;;;;4977031;28;20158;-78
2022/04/29 07:00:12;;;;;;;12.93;7.93;;;10.10;60.30;;;;;;4977049;28;20026;-78
2022/04/29 07:02:38;;;;;;;15.10;7.30;;;10.00;59.50;;;;;;4978117;28;20033;-78
2022/04/29 07:05:04;;;;;;;9.02;6.93;;;10.10;59.50;;;;;;4978133;28;20019;-78
2022/04/29 07:07:30;;;;;;;12.07;6.97;;;10.10;60.40;;;;;;4978723;28;20102;-78
2022/04/29 07:09:55;;;;;;;16.17;7.72;;;10.40;59.70;;;;;;4976606;28;20065;-79
2022/04/29 07:12:21;;;;;;;10.90;7.70;;;10.40;59.20;;;;;;4978023;28;20027;-78
2022/04/29 07:14:47;;;;;;;9.68;7.63;;;10.50;59.00;;;;;;4982092;28;20050;-79
2022/04/29 07:17:12;;;;;;;10.63;6.65;;;10.70;58.90;;;;;;4976504;28;20075;-77
2022/04/29 07:19:38;;;;;;;10.88;7.20;;;10.70;58.70;;;;;;4976458;28;20023;-77
2022/04/29 07:22:05;;;;;;;12.00;7.32;;;11.10;57.60;;;;;;4976453;28;20105;-78
2022/04/29 07:24:31;;;;;;;8.88;6.45;;;11.20;57.00;;;;;;4976240;28;20127;-78
2022/04/29 07:26:57;;;;;;;10.38;6.97;;;11.50;56.40;;;;;;4976456;28;20023;-78
2022/04/29 07:29:23;;;;;;;14.55;5.85;;;11.70;55.30;;;;;;4976403;28;20031;-80
2022/04/29 07:31:48;;;;;;;10.35;7.05;;;12.00;69.90;;;;;;4977197;28;20022;-76
2022/04/29 07:34:14;;;;;;;10.25;6.75;;;12.50;62.40;;;;;;4976084;28;20045;-78
2022/04/29 07:42:08;;;;;;;10.85;6.47;;;13.70;55.80;;;;;;4976371;28;20065;-76
2022/04/29 07:44:34;;;;;;;13.32;5.70;;;13.90;53.30;;;;;;4976048;28;20113;-75
2022/04/29 07:47:00;;;;;;;8.88;5.45;;;14.20;52.40;;;;;;4975963;28;20019;-75
2022/04/29 07:49:26;;;;;;;9.23;6.15;;;14.30;51.00;;;;;;4975837;28;20469;-76
2022/04/29 07:51:52;;;;;;;14.85;7.60;;;14.70;50.00;;;;;;4975674;28;20022;-76
2022/04/29 07:54:17;;;;;;;7.60;5.15;;;15.00;48.80;;;;;;4975238;28;20370;-75
2022/04/29 07:56:43;;;;;;;11.35;6.35;;;15.20;48.10;;;;;;4975489;28;20058;-76
2022/04/29 07:59:08;;;;;;;9.98;5.45;;;14.90;45.30;;;;;;4975519;28;20409;-76
2022/04/29 08:01:38;;;;;;;11.90;6.10;;;14.80;46.90;;;;;;4975347;28;20019;-76
2022/04/29 08:04:04;;;;;;;7.07;4.88;;;15.00;46.90;;;;;;4975370;28;20014;-76
2022/04/29 08:06:30;;;;;;;6.22;4.85;;;15.10;44.40;;;;;;4975406;28;20101;-77
2022/04/29 08:08:56;;;;;;;9.63;4.45;;;15.40;45.80;;;;;;4975300;28;20106;-77
2022/04/29 08:11:22;;;;;;;10.18;6.20;;;15.70;46.00;;;;;;4975487;28;20032;-79
2022/04/29 08:13:48;;;;;;;7.28;4.68;;;15.90;43.70;;;;;;4975254;28;20031;-79
2022/04/29 08:16:15;;;;;;;8.85;4.05;;;15.80;43.40;;;;;;4975141;28;20054;-79
2022/04/29 08:18:41;;;;;;;5.35;3.45;;;15.90;40.40;;;;;;4975266;28;20393;-80
2022/04/29 08:21:07;;;;;;;7.10;3.63;;;15.60;33.80;;;;;;4975168;28;20053;-79
2022/04/29 08:23:32;;;;;;;3.55;2.67;;;15.40;33.40;;;;;;4975281;28;20027;-79
2022/04/29 08:25:58;;;;;;;4.00;2.72;;;15.50;34.40;;;;;;4975281;28;20385;-79
2022/04/29 08:28:25;;;;;;;4.20;3.17;;;15.50;34.60;;;;;;4974708;28;20029;-79
2022/04/29 08:30:51;;;;;;;5.85;2.63;;;15.50;32.70;;;;;;4974896;28;20129;-78
2022/04/29 08:33:17;;;;;;;2.85;2.55;;;15.50;32.00;;;;;;4975089;28;20101;-78
2022/04/29 08:35:43;;;;;;;5.13;2.78;;;15.70;32.30;;;;;;4974943;28;20034;-78
2022/04/29 08:38:10;;;;;;;5.70;2.83;;;15.70;31.50;;;;;;4979539;28;20067;-78
2022/04/29 08:40:40;;;;;;;2.97;2.28;;;15.70;31.10;;;;;;4990563;28;20019;-78
2022/04/29 08:43:05;;;;;;;4.15;2.78;;;15.90;31.50;;;;;;4975150;28;20054;-79
2022/04/29 08:45:31;;;;;;;5.78;2.90;;;15.90;30.30;;;;;;4974794;28;20062;-78
2022/04/29 08:47:57;;;;;;;6.10;2.60;;;15.80;29.70;;;;;;4989837;28;20473;-78
2022/04/29 08:50:23;;;;;;;4.10;3.13;;;15.70;29.30;;;;;;4974739;28;20031;-78
2022/04/29 08:52:49;;;;;;;4.57;2.20;;;15.90;29.60;;;;;;4989463;28;20026;-78
2022/04/29 09:00:45;;;;;;;3.43;2.37;;;16.20;29.10;;;;;;4974465;28;20097;-78
2022/04/29 09:03:16;;;;;;;4.90;2.88;;;16.10;28.80;;;;;;4974752;28;20254;-78
2022/04/29 09:05:43;;;;;;;4.75;2.70;;;16.30;28.50;;;;;;4973189;28;20031;-79
2022/04/29 09:08:16;;;;;;;8.00;2.20;;;16.30;28.20;;;;;;4974221;28;20043;-78
2022/04/29 09:10:55;;;;;;;9.88;2.50;;;16.50;29.10;;;;;;4974274;28;20485;-78
2022/04/29 09:13:29;;;;;;;6.60;2.80;;;16.70;27.90;;;;;;4973977;28;20089;-78
2022/04/29 09:16:04;;;;;;;8.65;2.63;;;16.90;27.90;;;;;;4974474;28;20027;-78
2022/04/29 09:18:33;;;;;;;;;;;16.90;27.60;;;;;;4974708;28;20023;-78
2022/04/29 09:21:02;;;;;;;4.68;2.58;;;16.90;27.30;;;;;;4973976;28;19976;-78
2022/04/29 09:23:29;;;;;;;4.32;3.05;;;16.90;26.20;;;;;;4974410;28;20023;-78
2022/04/29 09:26:01;;;;;;;3.92;2.83;;;16.70;26.30;;;;;;4974099;28;20034;-78
2022/04/29 09:28:27;;;;;;;4.93;2.28;;;16.80;26.40;;;;;;4973983;28;20023;-78
2022/04/29 09:30:56;;;;;;;5.95;2.90;;;16.70;26.20;;;;;;4973851;28;20027;-79
2022/04/29 09:33:23;;;;;;;3.45;2.55;;;16.70;26.50;;;;;;4975420;28;20023;-77
2022/04/29 09:35:49;;;;;;;4.30;2.60;;;16.50;26.70;;;;;;4974237;28;20146;-76
2022/04/29 09:41:00;;;;;;;5.65;2.67;;;16.40;26.60;;;;;;4974303;28;20057;-78
2022/04/29 09:43:38;;;;;;;5.72;2.65;;;16.50;26.50;;;;;;4975789;28;20073;-78
2022/04/29 09:46:11;;;;;;;6.22;2.65;;;16.80;27.00;;;;;;4974510;28;20484;-77
2022/04/29 09:49:00;;;;;;;3.60;2.40;;;17.10;27.60;;;;;;4974136;28;20023;-77
2022/04/29 09:51:46;;;;;;;4.10;2.53;;;17.30;26.40;;;;;;4974056;28;20026;-76
2022/04/29 09:54:42;;;;;;;3.25;2.63;;;17.40;25.20;;;;;;4973637;28;20077;-77
2022/04/29 09:57:08;;;;;;;;;;;17.50;25.10;;;;;;4973885;28;20046;-78
2022/04/29 09:59:34;;;;;;;;;;;17.50;26.10;;;;;;4972526;28;19918;-79
2022/04/29 10:02:01;;;;;;;3.35;2.42;;;17.60;25.80;;;;;;4973500;28;19906;-78
2022/04/29 10:04:34;;;;;;;5.53;2.90;;;17.40;25.40;;;;;;4973622;28;20027;-78
2022/04/29 10:07:05;;;;;;;3.67;2.85;;;17.30;25.40;;;;;;4973322;28;20030;-77
2022/04/29 10:09:36;;;;;;;5.05;2.80;;;17.40;26.30;;;;;;4973721;28;20098;-78
2022/04/29 10:12:09;;;;;;;4.45;2.10;;;17.30;25.50;;;;;;4973186;28;20362;-79
2022/04/29 10:14:37;;;;;;;6.95;3.35;;;17.50;26.00;;;;;;4974043;28;20089;-79
2022/04/29 10:22:45;;;;;;;3.10;2.47;;;17.20;26.70;;;;;;4973697;28;20546;-78
2022/04/29 10:25:12;;;;;;;3.63;2.65;;;17.10;25.50;;;;;;4971959;28;20389;-78
2022/04/29 10:27:39;;;;;;;5.13;2.20;;;17.20;26.40;;;;;;4973476;28;20023;-80
2022/04/29 10:30:06;;;;;;;3.47;2.40;;;17.40;25.70;;;;;;4973445;28;20033;-80
2022/04/29 10:33:10;;;;;;;4.85;2.70;;;17.50;25.60;;;;;;4973415;28;20031;-80
2022/04/29 10:35:39;;;;;;;3.70;2.20;;;17.50;25.90;;;;;;4973317;28;20068;-80
2022/04/29 10:38:27;;;;;;;3.40;2.03;;;17.80;27.20;;;;;;4971862;28;20129;-78
2022/04/29 10:41:17;;;;;;;3.47;2.28;;;18.20;27.80;;;;;;4973263;28;20031;-79
2022/04/29 10:43:51;;;;;;;3.17;2.47;;;18.80;27.00;;;;;;4973568;28;20113;-77
2022/04/29 10:46:30;;;;;;;3.45;2.60;;;19.10;25.50;;;;;;4971676;28;20047;-80
2022/04/29 10:48:56;;;;;;;3.75;2.90;;;19.40;23.60;;;;;;4973081;28;20446;-80
2022/04/29 10:51:25;;;;;;;4.65;2.50;;;19.20;22.80;;;;;;4975458;28;20040;-79
2022/04/29 10:53:55;;;;;;;4.18;2.58;;;19.20;23.00;;;;;;4976307;28;20438;-79
2022/04/29 10:56:26;;;;;;;4.70;2.92;;;19.10;22.50;;;;;;4970624;28;20027;-79
2022/04/29 10:58:53;;;;;;;6.35;3.10;;;19.10;22.70;;;;;;4964780;28;20030;-79
2022/04/29 11:01:28;;;;;;;3.65;3.15;;;19.00;21.90;;;;;;4968644;28;20608;-82
2022/04/29 11:03:54;;;;;;;;;;;18.90;22.50;;;;;;4976657;28;20085;-80
2022/04/29 11:06:19;;;;;;;3.50;2.67;;;18.70;23.90;;;;;;4976553;28;19907;-81
2022/04/29 11:08:46;;;;;;;4.50;2.95;;;18.70;23.60;;;;;;4976565;28;20081;-82
2022/04/29 11:11:12;;;;;;;4.00;3.03;;;18.70;23.70;;;;;;4976390;28;20046;-81
2022/04/29 11:13:43;;;;;;;3.70;2.83;;;18.90;24.30;;;;;;4976309;28;20037;-80
2022/04/29 11:16:16;;;;;;;4.88;3.05;;;18.90;25.00;;;;;;4976425;28;20022;-80
2022/04/29 11:18:43;;;;;;;6.90;2.67;;;18.70;23.90;;;;;;4976375;28;20041;-82
2022/04/29 11:26:49;;;;;;;6.03;3.92;;;19.50;23.70;;;;;;4976630;28;20037;-83
2022/04/29 11:29:17;;;;;;;7.88;3.90;;;19.30;22.70;;;;;;4976215;28;20023;-80
2022/04/29 11:31:43;;;;;;;4.45;3.60;;;19.00;23.50;;;;;;4976986;28;20054;-81
2022/04/29 11:34:11;;;;;;;5.05;3.35;;;18.90;24.20;;;;;;4976498;28;20062;-83
2022/04/29 11:36:38;;;;;;;4.38;3.38;;;18.80;23.40;;;;;;4975989;28;20030;-81
2022/04/29 11:39:24;;;;;;;4.13;3.22;;;19.00;23.50;;;;;;4974775;28;20022;-83
2022/04/29 11:41:56;;;;;;;;;;;19.00;24.10;;;;;;4976186;28;20397;-82
2022/04/29 11:44:40;;;;;;;7.70;3.90;;;19.20;24.10;;;;;;4969850;28;19921;-80
2022/04/29 11:47:06;;;;;;;4.18;3.53;;;19.30;25.20;;;;;;4956488;28;20023;-80
2022/04/29 11:49:33;;;;;;;6.10;3.90;;;19.60;24.10;;;;;;4981104;28;20551;-79
2022/04/29 11:52:18;;;;;;;6.03;3.83;;;19.80;24.70;;;;;;4965168;28;20026;-80
2022/04/29 11:55:03;;;;;;;4.95;3.20;;;20.10;24.20;;;;;;4965805;28;20037;-80
2022/04/29 11:57:31;;;;;;;3.72;3.15;;;20.20;23.10;;;;;;4966335;28;20105;-79
2022/04/29 11:59:58;;;;;;;6.13;3.72;;;19.90;22.80;;;;;;4964852;28;20022;-81
2022/04/29 12:02:25;;;;;;;3.70;3.28;;;19.80;23.90;;;;;;4963618;28;20492;-80
2022/04/29 12:04:57;;;;;;;5.97;2.95;;;19.90;24.70;;;;;;4958892;28;20066;-78
2022/04/29 12:07:24;;;;;;;3.95;3.10;;;20.10;24.30;;;;;;4956165;29;20047;-81
2022/04/29 12:09:51;;;;;;;5.13;3.63;;;20.10;23.90;;;;;;4956034;28;20386;-83
2022/04/29 12:12:26;;;;;;;6.75;3.70;;;20.10;22.10;;;;;;4956032;28;20078;-81
2022/04/29 12:14:53;;;;;;;4.97;3.50;;;20.10;22.70;;;;;;4955602;28;20039;-81
2022/04/29 12:17:19;;;;;;;8.13;3.75;;;20.00;23.70;;;;;;4956130;28;20028;-82
2022/04/29 12:19:55;;;;;;;5.20;3.33;;;20.00;23.80;;;;;;4955977;28;20481;-80
2022/04/29 12:22:28;;;;;;;;;;;20.10;25.00;;;;;;4955008;28;20027;-82
2022/04/29 12:24:54;;;;;;;3.88;2.78;;;20.40;25.50;;;;;;4956068;28;19946;-81
2022/04/29 12:27:29;;;;;;;3.70;2.83;;;20.70;25.90;;;;;;4955788;28;20027;-82
2022/04/29 12:35:30;;;;;;;4.03;3.42;;;21.70;25.50;;;;;;4955752;29;20039;-82
2022/04/29 12:37:55;;;;;;;5.95;3.10;;;21.90;23.80;;;;;;4954215;28;20409;-82
2022/04/29 12:40:29;;;;;;;4.97;2.80;;;22.00;23.70;;;;;;4955724;28;20074;-82
2022/04/29 12:43:09;;;;;;;4.70;2.72;;;21.90;23.40;;;;;;4955546;28;20047;-79
2022/04/29 12:45:35;;;;;;;12.15;4.07;;;22.00;24.10;;;;;;4955350;29;20105;-78
2022/04/29 12:48:05;;;;;;;7.65;3.05;;;22.00;23.30;;;;;;4954854;28;20102;-79
2022/04/29 12:50:39;;;;;;;5.22;2.47;;;21.60;23.50;;;;;;4955431;28;20027;-81
2022/04/29 12:53:09;;;;;;;3.22;2.60;;;21.70;24.60;;;;;;4955449;28;20027;-79
2022/04/29 12:55:37;;;;;;;4.60;2.33;;;21.70;24.00;;;;;;4955282;28;20058;-78
2022/04/29 12:58:07;;;;;;;3.40;2.15;;;21.80;22.80;;;;;;4955284;28;20074;-75
2022/04/29 13:00:33;;;;;;;3.83;2.33;;;21.90;23.50;;;;;;4955683;28;20034;-78
2022/04/29 13:03:00;;;;;;;7.05;2.33;;;22.00;22.70;;;;;;4955153;28;20026;-77
2022/04/29 13:05:27;;;;;;;4.93;2.03;;;22.20;22.50;;;;;;4955027;28;20111;-76
2022/04/29 13:07:53;;;;;;;2.30;1.70;;;22.40;22.90;;;;;;4954895;28;20031;-77
2022/04/29 13:10:18;;;;;;;3.63;2.10;;;22.70;25.50;;;;;;4955103;28;20082;-77
2022/04/29 13:12:45;;;;;;;4.32;1.90;;;22.90;23.30;;;;;;4954833;28;20037;-77
2022/04/29 13:15:14;;;;;;;4.10;1.92;;;23.00;20.00;;;;;;4954575;28;20422;-77
2022/04/29 13:17:40;;;;;;;4.93;2.10;;;23.10;19.70;;;;;;4954793;28;20426;-77
2022/04/29 13:20:08;;;;;;;2.20;1.95;;;23.10;18.30;;;;;;4953368;29;20023;-77
2022/04/29 13:22:34;;;;;;;2.78;2.13;;;23.20;18.20;;;;;;4955045;29;20031;-78
2022/04/29 13:25:00;;;;;;;2.67;1.70;;;23.40;19.60;;;;;;4954668;28;20135;-77
2022/04/29 13:27:25;;;;;;;2.47;1.70;;;23.70;19.20;;;;;;4955051;28;20050;-77
2022/04/29 13:29:51;;;;;;;6.65;2.28;;;24.00;18.10;;;;;;4963650;28;20036;-77